sensor_id;sensor_type;location;lat;lon;timestamp;P1;durP1;ratioP1;P2;durP2;ratioP2
66175;SDS011;52977;44.816;20.538;2023-07-24T00:00:40;16.52;;;10.85;;
66175;SDS011;52977;44.816;20.538;2023-07-24T00:03:06;19.45;;;11.73;;
66175;SDS011;52977;44.816;20.538;2023-07-24T00:05:32;16.00;;;10.23;;
66175;SDS011;52977;44.816;20.538;2023-07-24T00:07:59;17.02;;;10.70;;
66175;SDS011;52977;44.816;20.538;2023-07-24T00:10:25;16.25;;;10.40;;
66175;SDS011;52977;44.816;20.538;2023-07-24T00:12:51;16.42;;;11.10;;
66175;SDS011;52977;44.816;20.538;2023-07-24T00:15:17;18.13;;;11.60;;
66175;SDS011;52977;44.816;20.538;2023-07-24T00:17:43;18.27;;;11.25;;
66175;SDS011;52977;44.816;20.538;2023-07-24T00:20:09;18.30;;;11.10;;
66175;SDS011;52977;44.816;20.538;2023-07-24T00:22:35;14.75;;;10.45;;
66175;SDS011;52977;44.816;20.538;2023-07-24T00:25:01;17.67;;;10.63;;
66175;SDS011;52977;44.816;20.538;2023-07-24T00:27:28;18.55;;;11.48;;
66175;SDS011;52977;44.816;20.538;2023-07-24T00:29:54;19.02;;;10.82;;
66175;SDS011;52977;44.816;20.538;2023-07-24T00:32:20;21.10;;;11.40;;
66175;SDS011;52977;44.816;20.538;2023-07-24T00:34:46;17.98;;;10.45;;
66175;SDS011;52977;44.816;20.538;2023-07-24T00:37:12;16.65;;;10.65;;
66175;SDS011;52977;44.816;20.538;2023-07-24T00:39:37;15.73;;;10.30;;
66175;SDS011;52977;44.816;20.538;2023-07-24T00:42:03;19.63;;;11.15;;
66175;SDS011;52977;44.816;20.538;2023-07-24T00:44:30;19.27;;;11.63;;
66175;SDS011;52977;44.816;20.538;2023-07-24T00:46:55;18.13;;;10.77;;
66175;SDS011;52977;44.816;20.538;2023-07-24T00:49:22;20.00;;;11.13;;
66175;SDS011;52977;44.816;20.538;2023-07-24T00:51:48;15.52;;;10.25;;
66175;SDS011;52977;44.816;20.538;2023-07-24T00:54:14;17.30;;;11.95;;
66175;SDS011;52977;44.816;20.538;2023-07-24T00:56:44;18.55;;;10.70;;
66175;SDS011;52977;44.816;20.538;2023-07-24T00:59:14;19.67;;;11.20;;
66175;SDS011;52977;44.816;20.538;2023-07-24T01:01:40;18.85;;;11.63;;
66175;SDS011;52977;44.816;20.538;2023-07-24T01:04:08;19.73;;;11.45;;
66175;SDS011;52977;44.816;20.538;2023-07-24T01:06:34;17.75;;;11.55;;
66175;SDS011;52977;44.816;20.538;2023-07-24T01:09:02;18.75;;;11.27;;
66175;SDS011;52977;44.816;20.538;2023-07-24T01:11:29;17.13;;;11.40;;
66175;SDS011;52977;44.816;20.538;2023-07-24T01:14:09;18.85;;;11.52;;
66175;SDS011;52977;44.816;20.538;2023-07-24T01:16:49;16.58;;;11.00;;
66175;SDS011;52977;44.816;20.538;2023-07-24T01:22:17;17.65;;;11.38;;
66175;SDS011;52977;44.816;20.538;2023-07-24T01:27:33;18.83;;;11.45;;
66175;SDS011;52977;44.816;20.538;2023-07-24T01:29:59;17.77;;;11.30;;
66175;SDS011;52977;44.816;20.538;2023-07-24T01:32:25;17.33;;;10.65;;
66175;SDS011;52977;44.816;20.538;2023-07-24T01:34:52;16.00;;;10.98;;
66175;SDS011;52977;44.816;20.538;2023-07-24T01:37:19;18.50;;;10.73;;
66175;SDS011;52977;44.816;20.538;2023-07-24T01:39:47;17.88;;;11.07;;
66175;SDS011;52977;44.816;20.538;2023-07-24T01:42:14;19.77;;;11.70;;
66175;SDS011;52977;44.816;20.538;2023-07-24T01:44:41;15.73;;;10.80;;
66175;SDS011;52977;44.816;20.538;2023-07-24T01:47:07;16.92;;;10.68;;
66175;SDS011;52977;44.816;20.538;2023-07-24T01:49:34;17.15;;;11.00;;
66175;SDS011;52977;44.816;20.538;2023-07-24T01:52:00;19.33;;;12.07;;
66175;SDS011;52977;44.816;20.538;2023-07-24T01:54:26;18.17;;;11.48;;
66175;SDS011;52977;44.816;20.538;2023-07-24T01:56:52;18.60;;;11.40;;
66175;SDS011;52977;44.816;20.538;2023-07-24T01:59:18;19.23;;;11.15;;
66175;SDS011;52977;44.816;20.538;2023-07-24T02:01:44;20.65;;;11.77;;
66175;SDS011;52977;44.816;20.538;2023-07-24T02:04:10;17.65;;;11.07;;
66175;SDS011;52977;44.816;20.538;2023-07-24T02:06:39;22.02;;;12.50;;
66175;SDS011;52977;44.816;20.538;2023-07-24T02:09:05;18.42;;;11.32;;
66175;SDS011;52977;44.816;20.538;2023-07-24T02:11:30;17.95;;;11.43;;
66175;SDS011;52977;44.816;20.538;2023-07-24T02:13:56;16.95;;;10.80;;
66175;SDS011;52977;44.816;20.538;2023-07-24T02:16:22;20.73;;;11.38;;
66175;SDS011;52977;44.816;20.538;2023-07-24T02:18:47;18.50;;;11.25;;
66175;SDS011;52977;44.816;20.538;2023-07-24T02:21:13;16.65;;;11.13;;
66175;SDS011;52977;44.816;20.538;2023-07-24T02:23:39;16.67;;;10.68;;
66175;SDS011;52977;44.816;20.538;2023-07-24T02:26:05;18.08;;;10.25;;
66175;SDS011;52977;44.816;20.538;2023-07-24T02:28:33;19.48;;;11.13;;
66175;SDS011;52977;44.816;20.538;2023-07-24T02:30:59;16.90;;;10.32;;
66175;SDS011;52977;44.816;20.538;2023-07-24T02:33:26;16.95;;;10.02;;
66175;SDS011;52977;44.816;20.538;2023-07-24T02:35:52;16.70;;;10.05;;
66175;SDS011;52977;44.816;20.538;2023-07-24T02:38:18;17.80;;;9.32;;
66175;SDS011;52977;44.816;20.538;2023-07-24T02:40:44;17.33;;;9.68;;
66175;SDS011;52977;44.816;20.538;2023-07-24T02:43:11;16.73;;;9.13;;
66175;SDS011;52977;44.816;20.538;2023-07-24T02:45:37;16.95;;;9.82;;
66175;SDS011;52977;44.816;20.538;2023-07-24T02:48:04;15.48;;;9.40;;
66175;SDS011;52977;44.816;20.538;2023-07-24T02:50:32;14.43;;;8.93;;
66175;SDS011;52977;44.816;20.538;2023-07-24T02:52:58;15.88;;;9.60;;
66175;SDS011;52977;44.816;20.538;2023-07-24T02:55:25;16.77;;;9.85;;
66175;SDS011;52977;44.816;20.538;2023-07-24T02:57:51;14.55;;;8.90;;
66175;SDS011;52977;44.816;20.538;2023-07-24T03:00:17;16.15;;;9.70;;
66175;SDS011;52977;44.816;20.538;2023-07-24T03:02:43;15.07;;;9.02;;
66175;SDS011;52977;44.816;20.538;2023-07-24T03:05:09;16.92;;;9.35;;
66175;SDS011;52977;44.816;20.538;2023-07-24T03:07:35;15.75;;;9.40;;
66175;SDS011;52977;44.816;20.538;2023-07-24T03:10:01;19.10;;;11.07;;
66175;SDS011;52977;44.816;20.538;2023-07-24T03:12:29;18.30;;;10.50;;
66175;SDS011;52977;44.816;20.538;2023-07-24T03:14:55;17.63;;;10.57;;
66175;SDS011;52977;44.816;20.538;2023-07-24T03:17:22;18.13;;;10.00;;
66175;SDS011;52977;44.816;20.538;2023-07-24T03:19:48;17.45;;;10.32;;
66175;SDS011;52977;44.816;20.538;2023-07-24T03:22:15;16.95;;;9.90;;
66175;SDS011;52977;44.816;20.538;2023-07-24T03:24:41;19.83;;;10.95;;
66175;SDS011;52977;44.816;20.538;2023-07-24T03:27:07;17.10;;;10.55;;
66175;SDS011;52977;44.816;20.538;2023-07-24T03:29:33;20.42;;;10.30;;
66175;SDS011;52977;44.816;20.538;2023-07-24T03:31:59;18.33;;;10.93;;
66175;SDS011;52977;44.816;20.538;2023-07-24T03:34:25;17.10;;;11.18;;
66175;SDS011;52977;44.816;20.538;2023-07-24T03:36:52;19.23;;;10.88;;
66175;SDS011;52977;44.816;20.538;2023-07-24T03:39:18;17.77;;;11.15;;
66175;SDS011;52977;44.816;20.538;2023-07-24T03:41:44;17.92;;;10.90;;
66175;SDS011;52977;44.816;20.538;2023-07-24T03:44:10;18.75;;;10.02;;
66175;SDS011;52977;44.816;20.538;2023-07-24T03:46:36;17.35;;;10.57;;
66175;SDS011;52977;44.816;20.538;2023-07-24T03:49:02;17.00;;;9.98;;
66175;SDS011;52977;44.816;20.538;2023-07-24T03:51:28;18.48;;;10.40;;
66175;SDS011;52977;44.816;20.538;2023-07-24T03:53:54;17.90;;;10.50;;
66175;SDS011;52977;44.816;20.538;2023-07-24T03:56:21;17.75;;;10.40;;
66175;SDS011;52977;44.816;20.538;2023-07-24T03:58:47;16.05;;;9.73;;
66175;SDS011;52977;44.816;20.538;2023-07-24T04:01:13;18.55;;;10.55;;
66175;SDS011;52977;44.816;20.538;2023-07-24T04:03:39;17.45;;;10.30;;
66175;SDS011;52977;44.816;20.538;2023-07-24T04:06:05;16.55;;;10.27;;
66175;SDS011;52977;44.816;20.538;2023-07-24T04:08:31;18.05;;;10.02;;
66175;SDS011;52977;44.816;20.538;2023-07-24T04:10:57;17.13;;;9.43;;
66175;SDS011;52977;44.816;20.538;2023-07-24T04:13:24;19.45;;;10.10;;
66175;SDS011;52977;44.816;20.538;2023-07-24T04:15:50;15.68;;;9.88;;
66175;SDS011;52977;44.816;20.538;2023-07-24T04:18:16;17.67;;;10.50;;
66175;SDS011;52977;44.816;20.538;2023-07-24T04:20:42;20.33;;;9.70;;
66175;SDS011;52977;44.816;20.538;2023-07-24T04:23:08;18.77;;;10.10;;
66175;SDS011;52977;44.816;20.538;2023-07-24T04:25:34;16.73;;;10.25;;
66175;SDS011;52977;44.816;20.538;2023-07-24T04:28:00;18.20;;;9.98;;
66175;SDS011;52977;44.816;20.538;2023-07-24T04:30:27;17.25;;;10.18;;
66175;SDS011;52977;44.816;20.538;2023-07-24T04:32:52;17.58;;;10.70;;
66175;SDS011;52977;44.816;20.538;2023-07-24T04:35:18;17.15;;;10.07;;
66175;SDS011;52977;44.816;20.538;2023-07-24T04:37:44;17.75;;;10.15;;
66175;SDS011;52977;44.816;20.538;2023-07-24T04:40:11;16.80;;;10.60;;
66175;SDS011;52977;44.816;20.538;2023-07-24T04:42:37;17.88;;;10.55;;
66175;SDS011;52977;44.816;20.538;2023-07-24T04:45:03;18.75;;;10.48;;
66175;SDS011;52977;44.816;20.538;2023-07-24T04:47:30;19.70;;;11.10;;
66175;SDS011;52977;44.816;20.538;2023-07-24T04:49:56;19.42;;;11.13;;
66175;SDS011;52977;44.816;20.538;2023-07-24T04:52:22;17.17;;;10.52;;
66175;SDS011;52977;44.816;20.538;2023-07-24T04:54:48;17.05;;;10.13;;
66175;SDS011;52977;44.816;20.538;2023-07-24T04:57:14;15.88;;;9.77;;
66175;SDS011;52977;44.816;20.538;2023-07-24T04:59:40;19.35;;;9.93;;
66175;SDS011;52977;44.816;20.538;2023-07-24T05:02:06;14.77;;;8.93;;
66175;SDS011;52977;44.816;20.538;2023-07-24T05:04:32;15.73;;;8.63;;
66175;SDS011;52977;44.816;20.538;2023-07-24T05:06:57;17.48;;;9.05;;
66175;SDS011;52977;44.816;20.538;2023-07-24T05:09:23;15.63;;;8.82;;
66175;SDS011;52977;44.816;20.538;2023-07-24T05:11:49;18.08;;;9.38;;
66175;SDS011;52977;44.816;20.538;2023-07-24T05:14:15;19.30;;;9.88;;
66175;SDS011;52977;44.816;20.538;2023-07-24T05:16:40;14.10;;;8.52;;
66175;SDS011;52977;44.816;20.538;2023-07-24T05:19:06;16.75;;;10.07;;
66175;SDS011;52977;44.816;20.538;2023-07-24T05:21:34;17.58;;;9.10;;
66175;SDS011;52977;44.816;20.538;2023-07-24T05:24:00;17.48;;;9.88;;
66175;SDS011;52977;44.816;20.538;2023-07-24T05:26:26;15.82;;;9.60;;
66175;SDS011;52977;44.816;20.538;2023-07-24T05:28:52;19.33;;;9.52;;
66175;SDS011;52977;44.816;20.538;2023-07-24T05:31:18;19.00;;;9.85;;
66175;SDS011;52977;44.816;20.538;2023-07-24T05:33:45;16.52;;;9.77;;
66175;SDS011;52977;44.816;20.538;2023-07-24T05:36:10;14.63;;;9.23;;
66175;SDS011;52977;44.816;20.538;2023-07-24T05:38:36;17.63;;;10.20;;
66175;SDS011;52977;44.816;20.538;2023-07-24T05:41:02;17.70;;;9.95;;
66175;SDS011;52977;44.816;20.538;2023-07-24T05:43:29;19.65;;;9.77;;
66175;SDS011;52977;44.816;20.538;2023-07-24T05:45:57;20.65;;;11.32;;
66175;SDS011;52977;44.816;20.538;2023-07-24T05:48:24;19.25;;;11.05;;
66175;SDS011;52977;44.816;20.538;2023-07-24T05:50:50;20.83;;;11.18;;
66175;SDS011;52977;44.816;20.538;2023-07-24T05:53:17;18.55;;;10.38;;
66175;SDS011;52977;44.816;20.538;2023-07-24T05:55:43;19.98;;;10.82;;
66175;SDS011;52977;44.816;20.538;2023-07-24T05:58:09;16.70;;;10.10;;
66175;SDS011;52977;44.816;20.538;2023-07-24T06:00:36;20.50;;;10.40;;
66175;SDS011;52977;44.816;20.538;2023-07-24T06:03:02;21.85;;;10.75;;
66175;SDS011;52977;44.816;20.538;2023-07-24T06:05:29;18.90;;;10.65;;
66175;SDS011;52977;44.816;20.538;2023-07-24T06:07:55;21.58;;;12.15;;
66175;SDS011;52977;44.816;20.538;2023-07-24T06:10:21;21.13;;;11.23;;
66175;SDS011;52977;44.816;20.538;2023-07-24T06:12:47;22.35;;;12.73;;
66175;SDS011;52977;44.816;20.538;2023-07-24T06:15:13;24.42;;;13.52;;
66175;SDS011;52977;44.816;20.538;2023-07-24T06:17:39;23.67;;;13.13;;
66175;SDS011;52977;44.816;20.538;2023-07-24T06:20:06;20.52;;;12.65;;
66175;SDS011;52977;44.816;20.538;2023-07-24T06:22:32;20.83;;;12.27;;
66175;SDS011;52977;44.816;20.538;2023-07-24T06:24:58;19.88;;;11.82;;
66175;SDS011;52977;44.816;20.538;2023-07-24T06:27:24;21.85;;;13.35;;
66175;SDS011;52977;44.816;20.538;2023-07-24T06:29:51;22.08;;;12.93;;
66175;SDS011;52977;44.816;20.538;2023-07-24T06:32:17;21.25;;;12.10;;
66175;SDS011;52977;44.816;20.538;2023-07-24T06:34:43;21.80;;;12.48;;
66175;SDS011;52977;44.816;20.538;2023-07-24T06:37:09;23.20;;;12.27;;
66175;SDS011;52977;44.816;20.538;2023-07-24T06:39:35;21.10;;;12.88;;
66175;SDS011;52977;44.816;20.538;2023-07-24T06:42:01;19.60;;;12.15;;
66175;SDS011;52977;44.816;20.538;2023-07-24T06:44:27;21.42;;;12.05;;
66175;SDS011;52977;44.816;20.538;2023-07-24T06:46:54;23.67;;;12.40;;
66175;SDS011;52977;44.816;20.538;2023-07-24T06:49:20;26.75;;;13.13;;
66175;SDS011;52977;44.816;20.538;2023-07-24T06:51:46;22.67;;;11.38;;
66175;SDS011;52977;44.816;20.538;2023-07-24T06:54:15;19.95;;;9.98;;
66175;SDS011;52977;44.816;20.538;2023-07-24T06:56:42;17.88;;;10.25;;
66175;SDS011;52977;44.816;20.538;2023-07-24T06:59:08;20.70;;;10.23;;
66175;SDS011;52977;44.816;20.538;2023-07-24T07:01:34;20.33;;;10.30;;
66175;SDS011;52977;44.816;20.538;2023-07-24T07:04:00;18.02;;;10.90;;
66175;SDS011;52977;44.816;20.538;2023-07-24T07:06:26;18.63;;;10.25;;
66175;SDS011;52977;44.816;20.538;2023-07-24T07:08:52;23.33;;;10.13;;
66175;SDS011;52977;44.816;20.538;2023-07-24T07:11:18;19.52;;;9.65;;
66175;SDS011;52977;44.816;20.538;2023-07-24T07:13:44;22.85;;;10.48;;
66175;SDS011;52977;44.816;20.538;2023-07-24T07:16:13;17.90;;;9.57;;
66175;SDS011;52977;44.816;20.538;2023-07-24T07:18:39;19.38;;;9.68;;
66175;SDS011;52977;44.816;20.538;2023-07-24T07:21:05;18.90;;;9.65;;
66175;SDS011;52977;44.816;20.538;2023-07-24T07:23:32;18.48;;;9.75;;
66175;SDS011;52977;44.816;20.538;2023-07-24T07:25:58;21.65;;;10.55;;
66175;SDS011;52977;44.816;20.538;2023-07-24T07:28:24;19.27;;;9.60;;
66175;SDS011;52977;44.816;20.538;2023-07-24T07:30:50;20.17;;;10.10;;
66175;SDS011;52977;44.816;20.538;2023-07-24T07:33:16;21.42;;;10.23;;
66175;SDS011;52977;44.816;20.538;2023-07-24T07:35:42;20.67;;;9.52;;
66175;SDS011;52977;44.816;20.538;2023-07-24T07:38:08;20.20;;;9.68;;
66175;SDS011;52977;44.816;20.538;2023-07-24T07:40:36;22.13;;;10.23;;
66175;SDS011;52977;44.816;20.538;2023-07-24T07:43:02;18.73;;;9.82;;
66175;SDS011;52977;44.816;20.538;2023-07-24T07:45:28;18.90;;;9.73;;
66175;SDS011;52977;44.816;20.538;2023-07-24T07:47:54;23.83;;;11.00;;
66175;SDS011;52977;44.816;20.538;2023-07-24T07:50:20;27.17;;;11.32;;
66175;SDS011;52977;44.816;20.538;2023-07-24T07:52:48;21.90;;;10.38;;
66175;SDS011;52977;44.816;20.538;2023-07-24T07:55:17;19.73;;;10.35;;
66175;SDS011;52977;44.816;20.538;2023-07-24T07:57:44;20.02;;;11.00;;
66175;SDS011;52977;44.816;20.538;2023-07-24T08:00:11;22.95;;;11.25;;
66175;SDS011;52977;44.816;20.538;2023-07-24T08:02:37;21.27;;;10.43;;
66175;SDS011;52977;44.816;20.538;2023-07-24T08:05:09;21.27;;;10.32;;
66175;SDS011;52977;44.816;20.538;2023-07-24T08:07:35;23.17;;;10.20;;
66175;SDS011;52977;44.816;20.538;2023-07-24T08:10:02;19.40;;;9.95;;
66175;SDS011;52977;44.816;20.538;2023-07-24T08:12:29;21.20;;;9.85;;
66175;SDS011;52977;44.816;20.538;2023-07-24T08:14:55;18.88;;;9.73;;
66175;SDS011;52977;44.816;20.538;2023-07-24T08:17:22;22.95;;;10.50;;
66175;SDS011;52977;44.816;20.538;2023-07-24T08:19:48;19.92;;;9.60;;
66175;SDS011;52977;44.816;20.538;2023-07-24T08:22:14;22.73;;;10.63;;
66175;SDS011;52977;44.816;20.538;2023-07-24T08:24:40;19.98;;;10.80;;
66175;SDS011;52977;44.816;20.538;2023-07-24T08:27:06;22.55;;;9.05;;
66175;SDS011;52977;44.816;20.538;2023-07-24T08:29:32;22.10;;;10.13;;
66175;SDS011;52977;44.816;20.538;2023-07-24T08:32:00;19.23;;;9.63;;
66175;SDS011;52977;44.816;20.538;2023-07-24T08:34:26;19.90;;;9.95;;
66175;SDS011;52977;44.816;20.538;2023-07-24T08:36:52;18.27;;;8.85;;
66175;SDS011;52977;44.816;20.538;2023-07-24T08:39:19;19.77;;;10.23;;
66175;SDS011;52977;44.816;20.538;2023-07-24T08:41:45;20.33;;;9.50;;
66175;SDS011;52977;44.816;20.538;2023-07-24T08:44:11;20.42;;;9.18;;
66175;SDS011;52977;44.816;20.538;2023-07-24T08:46:37;22.45;;;9.63;;
66175;SDS011;52977;44.816;20.538;2023-07-24T08:49:10;20.80;;;9.20;;
66175;SDS011;52977;44.816;20.538;2023-07-24T08:51:37;19.50;;;9.40;;
66175;SDS011;52977;44.816;20.538;2023-07-24T08:54:05;17.25;;;9.15;;
66175;SDS011;52977;44.816;20.538;2023-07-24T08:56:31;21.33;;;9.35;;
66175;SDS011;52977;44.816;20.538;2023-07-24T08:58:57;19.13;;;9.73;;
66175;SDS011;52977;44.816;20.538;2023-07-24T09:01:24;19.40;;;9.25;;
66175;SDS011;52977;44.816;20.538;2023-07-24T09:03:50;19.67;;;9.35;;
66175;SDS011;52977;44.816;20.538;2023-07-24T09:06:16;22.02;;;9.55;;
66175;SDS011;52977;44.816;20.538;2023-07-24T09:08:43;18.65;;;9.32;;
66175;SDS011;52977;44.816;20.538;2023-07-24T09:11:10;18.92;;;9.70;;
66175;SDS011;52977;44.816;20.538;2023-07-24T09:13:41;19.70;;;9.17;;
66175;SDS011;52977;44.816;20.538;2023-07-24T09:16:08;21.67;;;9.50;;
66175;SDS011;52977;44.816;20.538;2023-07-24T09:18:39;20.48;;;8.95;;
66175;SDS011;52977;44.816;20.538;2023-07-24T09:21:09;20.23;;;8.52;;
66175;SDS011;52977;44.816;20.538;2023-07-24T09:23:37;23.50;;;9.85;;
66175;SDS011;52977;44.816;20.538;2023-07-24T09:26:09;17.80;;;8.82;;
66175;SDS011;52977;44.816;20.538;2023-07-24T09:28:35;23.00;;;9.63;;
66175;SDS011;52977;44.816;20.538;2023-07-24T09:31:02;21.00;;;9.52;;
66175;SDS011;52977;44.816;20.538;2023-07-24T09:33:38;24.17;;;9.57;;
66175;SDS011;52977;44.816;20.538;2023-07-24T09:36:07;25.05;;;9.00;;
66175;SDS011;52977;44.816;20.538;2023-07-24T09:38:34;18.73;;;8.45;;
66175;SDS011;52977;44.816;20.538;2023-07-24T09:41:04;20.63;;;9.60;;
66175;SDS011;52977;44.816;20.538;2023-07-24T09:43:32;22.08;;;9.35;;
66175;SDS011;52977;44.816;20.538;2023-07-24T09:46:01;19.65;;;9.10;;
66175;SDS011;52977;44.816;20.538;2023-07-24T09:48:30;18.63;;;8.63;;
66175;SDS011;52977;44.816;20.538;2023-07-24T09:50:58;18.05;;;8.23;;
66175;SDS011;52977;44.816;20.538;2023-07-24T09:53:32;21.60;;;8.63;;
66175;SDS011;52977;44.816;20.538;2023-07-24T09:56:08;16.23;;;7.75;;
66175;SDS011;52977;44.816;20.538;2023-07-24T09:58:38;20.33;;;9.13;;
66175;SDS011;52977;44.816;20.538;2023-07-24T10:01:08;19.40;;;8.32;;
66175;SDS011;52977;44.816;20.538;2023-07-24T10:03:39;21.52;;;8.85;;
66175;SDS011;52977;44.816;20.538;2023-07-24T10:06:08;19.67;;;8.25;;
66175;SDS011;52977;44.816;20.538;2023-07-24T10:08:38;16.75;;;8.75;;
66175;SDS011;52977;44.816;20.538;2023-07-24T10:11:05;20.00;;;8.82;;
66175;SDS011;52977;44.816;20.538;2023-07-24T10:13:31;19.35;;;8.70;;
66175;SDS011;52977;44.816;20.538;2023-07-24T10:16:02;22.02;;;8.52;;
66175;SDS011;52977;44.816;20.538;2023-07-24T10:18:32;18.45;;;8.40;;
66175;SDS011;52977;44.816;20.538;2023-07-24T10:21:06;20.75;;;9.15;;
66175;SDS011;52977;44.816;20.538;2023-07-24T10:23:37;19.70;;;8.38;;
66175;SDS011;52977;44.816;20.538;2023-07-24T10:26:07;18.17;;;8.45;;
66175;SDS011;52977;44.816;20.538;2023-07-24T10:28:35;20.92;;;8.77;;
66175;SDS011;52977;44.816;20.538;2023-07-24T10:31:06;18.95;;;8.50;;
66175;SDS011;52977;44.816;20.538;2023-07-24T10:33:35;17.98;;;8.73;;
66175;SDS011;52977;44.816;20.538;2023-07-24T10:36:07;22.13;;;8.13;;
66175;SDS011;52977;44.816;20.538;2023-07-24T10:38:37;17.00;;;8.27;;
66175;SDS011;52977;44.816;20.538;2023-07-24T10:41:04;18.75;;;8.85;;
66175;SDS011;52977;44.816;20.538;2023-07-24T10:46:08;22.40;;;8.73;;
66175;SDS011;52977;44.816;20.538;2023-07-24T10:48:35;18.23;;;8.80;;
66175;SDS011;52977;44.816;20.538;2023-07-24T10:51:05;17.42;;;8.48;;
66175;SDS011;52977;44.816;20.538;2023-07-24T10:53:35;19.85;;;8.82;;
66175;SDS011;52977;44.816;20.538;2023-07-24T10:56:04;22.17;;;8.85;;
66175;SDS011;52977;44.816;20.538;2023-07-24T10:58:32;25.67;;;9.07;;
66175;SDS011;52977;44.816;20.538;2023-07-24T11:01:03;18.45;;;8.55;;
66175;SDS011;52977;44.816;20.538;2023-07-24T11:03:30;20.50;;;8.35;;
66175;SDS011;52977;44.816;20.538;2023-07-24T11:05:57;19.17;;;8.68;;
66175;SDS011;52977;44.816;20.538;2023-07-24T11:08:24;18.48;;;8.20;;
66175;SDS011;52977;44.816;20.538;2023-07-24T11:10:54;19.55;;;8.95;;
66175;SDS011;52977;44.816;20.538;2023-07-24T11:13:22;20.17;;;8.50;;
66175;SDS011;52977;44.816;20.538;2023-07-24T11:15:49;17.45;;;8.65;;
66175;SDS011;52977;44.816;20.538;2023-07-24T11:18:17;18.17;;;8.60;;
66175;SDS011;52977;44.816;20.538;2023-07-24T11:20:47;23.73;;;9.15;;
66175;SDS011;52977;44.816;20.538;2023-07-24T11:23:20;19.10;;;8.52;;
66175;SDS011;52977;44.816;20.538;2023-07-24T11:25:50;17.92;;;8.55;;
66175;SDS011;52977;44.816;20.538;2023-07-24T11:28:17;20.00;;;9.15;;
66175;SDS011;52977;44.816;20.538;2023-07-24T11:30:43;18.67;;;8.43;;
66175;SDS011;52977;44.816;20.538;2023-07-24T11:33:10;18.60;;;8.70;;
66175;SDS011;52977;44.816;20.538;2023-07-24T11:35:38;20.13;;;8.63;;
66175;SDS011;52977;44.816;20.538;2023-07-24T11:38:06;23.35;;;9.80;;
66175;SDS011;52977;44.816;20.538;2023-07-24T11:40:36;20.20;;;8.38;;
66175;SDS011;52977;44.816;20.538;2023-07-24T11:43:04;22.43;;;9.83;;
66175;SDS011;52977;44.816;20.538;2023-07-24T11:45:30;18.77;;;9.43;;
66175;SDS011;52977;44.816;20.538;2023-07-24T11:47:57;19.38;;;8.82;;
66175;SDS011;52977;44.816;20.538;2023-07-24T11:50:24;19.48;;;9.10;;
66175;SDS011;52977;44.816;20.538;2023-07-24T11:52:51;19.02;;;8.48;;
66175;SDS011;52977;44.816;20.538;2023-07-24T11:55:39;16.27;;;7.82;;
66175;SDS011;52977;44.816;20.538;2023-07-24T11:58:05;21.95;;;8.80;;
66175;SDS011;52977;44.816;20.538;2023-07-24T12:00:33;20.92;;;9.20;;
66175;SDS011;52977;44.816;20.538;2023-07-24T12:03:00;23.30;;;9.93;;
66175;SDS011;52977;44.816;20.538;2023-07-24T12:05:26;21.73;;;9.52;;
66175;SDS011;52977;44.816;20.538;2023-07-24T12:07:53;20.30;;;9.45;;
66175;SDS011;52977;44.816;20.538;2023-07-24T12:10:26;23.08;;;9.38;;
66175;SDS011;52977;44.816;20.538;2023-07-24T12:12:54;20.83;;;9.35;;
66175;SDS011;52977;44.816;20.538;2023-07-24T12:15:44;19.58;;;9.23;;
66175;SDS011;52977;44.816;20.538;2023-07-24T12:18:10;23.55;;;9.50;;
66175;SDS011;52977;44.816;20.538;2023-07-24T12:20:36;20.23;;;9.32;;
66175;SDS011;52977;44.816;20.538;2023-07-24T12:23:03;24.35;;;10.60;;
66175;SDS011;52977;44.816;20.538;2023-07-24T12:25:29;20.45;;;9.55;;
66175;SDS011;52977;44.816;20.538;2023-07-24T12:27:56;19.77;;;9.07;;
66175;SDS011;52977;44.816;20.538;2023-07-24T12:30:22;19.25;;;9.40;;
66175;SDS011;52977;44.816;20.538;2023-07-24T12:32:48;21.95;;;9.43;;
66175;SDS011;52977;44.816;20.538;2023-07-24T12:35:15;21.17;;;8.65;;
66175;SDS011;52977;44.816;20.538;2023-07-24T12:37:42;18.98;;;9.18;;
66175;SDS011;52977;44.816;20.538;2023-07-24T12:40:08;20.42;;;9.05;;
66175;SDS011;52977;44.816;20.538;2023-07-24T12:42:35;24.45;;;9.68;;
66175;SDS011;52977;44.816;20.538;2023-07-24T12:45:01;20.35;;;9.52;;
66175;SDS011;52977;44.816;20.538;2023-07-24T12:47:29;19.35;;;9.50;;
66175;SDS011;52977;44.816;20.538;2023-07-24T12:49:56;20.40;;;8.63;;
66175;SDS011;52977;44.816;20.538;2023-07-24T12:52:25;22.63;;;9.68;;
66175;SDS011;52977;44.816;20.538;2023-07-24T12:54:53;18.88;;;9.13;;
66175;SDS011;52977;44.816;20.538;2023-07-24T12:57:18;21.05;;;9.40;;
66175;SDS011;52977;44.816;20.538;2023-07-24T12:59:44;23.05;;;9.75;;
66175;SDS011;52977;44.816;20.538;2023-07-24T13:02:10;21.48;;;9.50;;
66175;SDS011;52977;44.816;20.538;2023-07-24T13:04:36;21.35;;;9.52;;
66175;SDS011;52977;44.816;20.538;2023-07-24T13:07:02;19.13;;;8.93;;
66175;SDS011;52977;44.816;20.538;2023-07-24T13:09:30;19.10;;;8.93;;
66175;SDS011;52977;44.816;20.538;2023-07-24T13:11:56;18.85;;;8.50;;
66175;SDS011;52977;44.816;20.538;2023-07-24T13:14:22;21.50;;;9.65;;
66175;SDS011;52977;44.816;20.538;2023-07-24T13:16:49;19.40;;;9.57;;
66175;SDS011;52977;44.816;20.538;2023-07-24T13:19:16;21.02;;;9.70;;
66175;SDS011;52977;44.816;20.538;2023-07-24T13:21:42;19.50;;;9.27;;
66175;SDS011;52977;44.816;20.538;2023-07-24T13:24:09;20.58;;;9.02;;
66175;SDS011;52977;44.816;20.538;2023-07-24T13:26:35;18.60;;;9.15;;
66175;SDS011;52977;44.816;20.538;2023-07-24T13:29:02;22.23;;;9.25;;
66175;SDS011;52977;44.816;20.538;2023-07-24T13:31:28;18.42;;;9.00;;
66175;SDS011;52977;44.816;20.538;2023-07-24T13:33:57;18.35;;;8.75;;
66175;SDS011;52977;44.816;20.538;2023-07-24T13:36:24;17.88;;;9.07;;
66175;SDS011;52977;44.816;20.538;2023-07-24T13:38:50;19.67;;;9.35;;
66175;SDS011;52977;44.816;20.538;2023-07-24T13:41:17;18.35;;;9.30;;
66175;SDS011;52977;44.816;20.538;2023-07-24T13:43:43;22.10;;;9.52;;
66175;SDS011;52977;44.816;20.538;2023-07-24T13:46:09;19.60;;;8.75;;
66175;SDS011;52977;44.816;20.538;2023-07-24T13:48:35;17.48;;;9.00;;
66175;SDS011;52977;44.816;20.538;2023-07-24T13:51:01;19.50;;;8.75;;
66175;SDS011;52977;44.816;20.538;2023-07-24T13:53:27;18.60;;;9.52;;
66175;SDS011;52977;44.816;20.538;2023-07-24T13:55:53;18.30;;;8.73;;
66175;SDS011;52977;44.816;20.538;2023-07-24T13:58:18;20.05;;;8.93;;
66175;SDS011;52977;44.816;20.538;2023-07-24T14:00:44;18.58;;;8.45;;
66175;SDS011;52977;44.816;20.538;2023-07-24T14:03:10;19.08;;;8.70;;
66175;SDS011;52977;44.816;20.538;2023-07-24T14:05:36;21.42;;;9.02;;
66175;SDS011;52977;44.816;20.538;2023-07-24T14:08:02;19.23;;;8.98;;
66175;SDS011;52977;44.816;20.538;2023-07-24T14:10:29;18.42;;;8.65;;
66175;SDS011;52977;44.816;20.538;2023-07-24T14:12:55;18.65;;;8.57;;
66175;SDS011;52977;44.816;20.538;2023-07-24T14:15:21;18.40;;;8.80;;
66175;SDS011;52977;44.816;20.538;2023-07-24T14:17:47;19.77;;;8.68;;
66175;SDS011;52977;44.816;20.538;2023-07-24T14:20:13;18.58;;;8.55;;
66175;SDS011;52977;44.816;20.538;2023-07-24T14:22:40;20.15;;;9.32;;